Terminal Aerodrome Forecast
Issued by NWS

Home | Current Version | Previous Version | Text Only | Print | Product List | Glossary On
Versions: 1 2 3 4 5 6 7 8 9 10 11 12 13 14 15 16 17 18 19 20 21 22 23 24 25 26 27 28 29 30 31 32 33 34
000
FTUS41 KPBZ 230558 CCA
TAFDUJ
TAF COR
KDUJ 230558Z 2306/2406 13010KT P6SM OVC045 WS020/22040KT
     FM231200 16010KT P6SM -FZRA OVC035 WS020/21040KT
     FM231500 18011KT 3SM -RA OVC020 WS020/20045KT
     FM240100 21009KT 2SM -RA OVC008 WS020/21045KT
     FM240300 22008KT 2SM -RA OVC003 WS020/21045KT=

USA.gov is the U.S. government's official web portal to all federal, state and local government web resources and services.